createdAt,value
2022-08-24T00:01:47.047Z,101267.28
2022-08-24T00:04:15.354Z,101256.31
2022-08-24T00:06:45.586Z,101260.41
2022-08-24T00:09:13.547Z,101258.03
2022-08-24T00:11:41.746Z,101258.25
2022-08-24T00:14:12.141Z,101265.31
2022-08-24T00:16:40.795Z,101268.50
2022-08-24T00:19:08.873Z,101264.19
2022-08-24T00:21:36.953Z,101265.50
2022-08-24T00:24:05.522Z,101264.19
2022-08-24T00:26:33.846Z,101263.56
2022-08-24T00:29:06.834Z,101262.03
2022-08-24T00:31:37.370Z,101258.59
2022-08-24T00:34:05.524Z,101260.09
2022-08-24T00:36:33.725Z,101257.72
2022-08-24T00:39:02.442Z,101264.56
2022-08-24T00:41:30.607Z,101266.69
2022-08-24T00:43:59.898Z,101265.22
2022-08-24T00:46:30.632Z,101266.47
2022-08-24T00:49:02.892Z,101270.53
2022-08-24T00:51:32.416Z,101264.31
2022-08-24T00:54:03.738Z,101261.06
2022-08-24T00:56:34.587Z,101266.00
2022-08-24T00:59:04.696Z,101259.13
2022-08-24T01:01:34.862Z,101267.91
2022-08-24T01:04:05.549Z,101263.78
2022-08-24T01:06:34.105Z,101263.13
2022-08-24T01:09:02.182Z,101258.81
2022-08-24T01:11:33.946Z,101261.16
2022-08-24T01:14:03.395Z,101263.31
2022-08-24T01:16:48.509Z,101264.56
2022-08-24T01:19:26.678Z,101263.06
2022-08-24T01:21:59.447Z,101266.25
2022-08-24T01:24:29.077Z,101264.53
2022-08-24T01:26:57.155Z,101262.16
2022-08-24T01:29:27.756Z,101261.50
2022-08-24T01:31:56.158Z,101265.56
2022-08-24T01:34:24.426Z,101260.19
2022-08-24T01:36:56.090Z,101264.25
2022-08-24T01:39:26.328Z,101267.25
2022-08-24T01:41:56.121Z,101270.25
2022-08-24T01:44:25.145Z,101274.09
2022-08-24T01:46:55.023Z,101272.56
2022-08-24T01:49:24.294Z,101275.78
2022-08-24T01:51:52.402Z,101280.91
2022-08-24T01:54:20.453Z,101271.25
2022-08-24T01:56:48.475Z,101277.22
2022-08-24T01:59:19.498Z,101275.88
2022-08-24T02:01:51.340Z,101271.78
2022-08-24T02:04:20.338Z,101278.78
2022-08-24T02:06:49.505Z,101273.84
2022-08-24T02:09:18.437Z,101284.31
2022-08-24T02:11:46.865Z,101282.78
2022-08-24T02:14:15.066Z,101284.94
2022-08-24T02:16:44.946Z,101285.53
2022-08-24T02:19:13.765Z,101284.03
2022-08-24T02:21:41.831Z,101285.28
2022-08-24T02:24:09.911Z,101287.41
2022-08-24T02:26:38.113Z,101284.19
2022-08-24T02:29:06.194Z,101276.41
2022-08-24T02:31:34.468Z,101282.19
2022-08-24T02:34:04.189Z,101280.66
2022-08-24T02:36:50.719Z,101284.72
2022-08-24T02:39:20.961Z,101283.19
2022-08-24T02:41:50.374Z,101284.47
2022-08-24T02:44:20.486Z,101284.66
2022-08-24T02:46:49.340Z,101289.38
2022-08-24T02:49:21.448Z,101296.00
2022-08-24T02:51:50.733Z,101285.03
2022-08-24T02:54:21.452Z,101291.47
2022-08-24T02:56:52.415Z,101297.06
2022-08-24T02:59:21.096Z,101296.38
2022-08-24T03:01:50.358Z,101296.59
2022-08-24T03:04:21.820Z,101294.88
2022-08-24T03:06:49.902Z,101295.28
2022-08-24T03:09:18.222Z,101293.53
2022-08-24T03:15:40.259Z,101294.88
2022-08-24T03:18:08.515Z,101291.47
2022-08-24T03:20:38.269Z,101290.78
2022-08-24T03:23:06.589Z,101288.38
2022-08-24T03:25:34.705Z,101292.44
2022-08-24T03:28:04.194Z,101292.66
2022-08-24T03:30:39.367Z,101287.25
2022-08-24T03:33:12.043Z,101291.31
2022-08-24T03:35:41.893Z,101293.41
2022-08-24T03:38:13.802Z,101293.63
2022-08-24T03:40:43.083Z,101289.31
2022-08-24T03:43:31.330Z,101293.16
2022-08-24T03:46:02.008Z,101296.31
2022-08-24T03:48:30.130Z,101288.19
2022-08-24T03:51:00.019Z,101294.81
2022-08-24T03:53:28.574Z,101291.16
2022-08-24T03:55:56.772Z,101292.22
2022-08-24T03:58:24.972Z,101289.63
2022-08-24T04:00:56.426Z,101289.63
2022-08-24T04:03:24.858Z,101292.78
2022-08-24T04:05:55.218Z,101286.38
2022-08-24T04:08:25.595Z,101293.00
2022-08-24T04:10:54.381Z,101297.72
2022-08-24T04:13:22.723Z,101298.75
2022-08-24T04:15:53.077Z,101301.75
2022-08-24T04:18:23.792Z,101298.97
2022-08-24T04:20:54.989Z,101305.78
2022-08-24T04:23:23.317Z,101306.81
2022-08-24T04:26:03.512Z,101301.66
2022-08-24T04:28:32.552Z,101304.44
2022-08-24T04:31:00.917Z,101302.03
2022-08-24T04:33:39.639Z,101303.50
2022-08-24T04:36:09.159Z,101303.69
2022-08-24T04:38:40.976Z,101310.50
2022-08-24T04:41:45.918Z,101311.06
2022-08-24T04:44:16.964Z,101309.53
2022-08-24T04:46:45.172Z,101312.69
2022-08-24T04:49:13.627Z,101312.91
2022-08-24T04:51:41.938Z,101310.50
2022-08-24T04:54:10.611Z,101306.16
2022-08-24T04:56:39.534Z,101312.78
2022-08-24T04:59:09.652Z,101316.66
2022-08-24T05:01:38.000Z,101316.84
2022-08-24T05:04:07.273Z,101323.28
2022-08-24T05:06:35.706Z,101315.78
2022-08-24T05:09:04.860Z,101329.47
2022-08-24T05:11:33.236Z,101322.00
2022-08-24T05:14:01.882Z,101323.72
2022-08-24T05:16:34.299Z,101332.75
2022-08-24T05:19:03.910Z,101332.75
2022-08-24T05:21:31.991Z,101333.63
2022-08-24T05:24:00.799Z,101335.34
2022-08-24T05:26:32.952Z,101335.34
2022-08-24T05:29:02.847Z,101334.50
2022-08-24T05:31:50.123Z,101339.19
2022-08-24T05:34:18.840Z,101338.31
2022-08-24T05:36:50.246Z,101338.50
2022-08-24T05:39:33.681Z,101342.16
2022-08-24T05:42:06.801Z,101345.13
2022-08-24T05:44:37.762Z,101348.78
2022-08-24T05:47:07.805Z,101355.22
2022-08-24T05:49:40.768Z,101346.00
2022-08-24T05:52:10.418Z,101343.22
2022-08-24T05:54:38.851Z,101345.81
2022-08-24T05:57:07.055Z,101348.59
2022-08-24T05:59:41.854Z,101351.00
2022-08-24T06:02:17.457Z,101356.34
2022-08-24T06:04:47.025Z,101358.94
2022-08-24T06:07:14.980Z,101358.59
2022-08-24T06:09:48.117Z,101357.38
2022-08-24T06:12:16.313Z,101361.47
2022-08-24T06:14:47.935Z,101360.25
2022-08-24T06:17:22.173Z,101358.78
2022-08-24T06:19:52.555Z,101367.63
2022-08-24T06:22:20.633Z,101373.66
2022-08-24T06:25:06.355Z,101370.50
2022-08-24T06:27:35.770Z,101372.03
2022-08-24T06:30:07.195Z,101375.28
2022-08-24T06:33:07.558Z,101374.03
2022-08-24T06:35:46.782Z,101374.31
2022-08-24T06:38:15.599Z,101382.09
2022-08-24T06:40:46.446Z,101383.41
2022-08-24T06:43:15.007Z,101382.84
2022-08-24T06:45:54.969Z,101388.69
2022-08-24T06:48:30.622Z,101387.44
2022-08-24T06:50:59.288Z,101384.91
2022-08-24T06:53:27.853Z,101387.84
2022-08-24T06:55:58.931Z,101384.06
2022-08-24T06:58:28.826Z,101382.66
2022-08-24T07:00:57.374Z,101385.19
2022-08-24T07:03:26.775Z,101387.53
2022-08-24T07:06:09.030Z,101391.66
2022-08-24T07:08:42.412Z,101382.44
2022-08-24T07:11:12.383Z,101394.47
2022-08-24T07:13:40.350Z,101394.88
2022-08-24T07:16:10.110Z,101396.31
2022-08-24T07:18:40.888Z,101399.44
2022-08-24T07:21:11.669Z,101394.34
2022-08-24T07:23:47.790Z,101399.94
2022-08-24T07:26:21.519Z,101398.47
2022-08-24T07:28:53.193Z,101396.91
2022-08-24T07:31:22.582Z,101398.56
2022-08-24T07:33:58.721Z,101402.75
2022-08-24T07:36:28.691Z,101403.06
2022-08-24T07:38:57.472Z,101402.50
2022-08-24T07:44:18.410Z,101408.00
2022-08-24T07:46:47.038Z,101409.16
2022-08-24T07:49:33.115Z,101410.53
2022-08-24T07:52:06.895Z,101414.47
2022-08-24T07:54:36.060Z,101410.16
2022-08-24T07:57:06.694Z,101412.22
2022-08-24T07:59:35.581Z,101412.69
2022-08-24T08:02:05.222Z,101414.09
2022-08-24T08:04:33.314Z,101417.81
2022-08-24T08:07:02.232Z,101424.38
2022-08-24T08:09:34.622Z,101419.94
2022-08-24T08:12:02.700Z,101423.00
2022-08-24T08:14:31.630Z,101416.56
2022-08-24T08:17:00.080Z,101427.88
2022-08-24T08:19:28.147Z,101424.22
2022-08-24T08:22:22.035Z,101434.47
2022-08-24T08:25:10.151Z,101437.91
2022-08-24T08:27:38.871Z,101427.75
2022-08-24T08:30:07.515Z,101432.53
2022-08-24T08:32:37.278Z,101432.81
2022-08-24T08:35:05.956Z,101431.09
2022-08-24T08:40:19.619Z,101432.69
2022-08-24T08:43:03.214Z,101430.31
2022-08-24T08:45:36.202Z,101425.78
2022-08-24T08:48:36.127Z,101431.66
2022-08-24T08:51:34.538Z,101433.00
2022-08-24T08:54:18.347Z,101436.28
2022-08-24T08:56:59.055Z,101431.34
2022-08-24T08:59:35.253Z,101430.34
2022-08-24T09:02:15.350Z,101427.66
2022-08-24T09:05:04.419Z,101427.75
2022-08-24T09:07:40.776Z,101430.94
2022-08-24T09:10:27.592Z,101424.28
2022-08-24T09:13:06.944Z,101428.03
2022-08-24T09:15:39.700Z,101420.50
2022-08-24T09:18:16.920Z,101422.34
2022-08-24T09:20:58.903Z,101422.44
2022-08-24T09:23:29.993Z,101425.09
2022-08-24T09:26:02.387Z,101418.47
2022-08-24T09:28:43.989Z,101414.38
2022-08-24T09:31:25.152Z,101418.97
2022-08-24T09:34:03.832Z,101423.09
2022-08-24T09:36:43.078Z,101420.34
2022-08-24T09:39:16.444Z,101411.69
2022-08-24T09:41:53.407Z,101414.34
2022-08-24T09:44:30.732Z,101412.50
2022-08-24T09:47:22.081Z,101400.38
2022-08-24T09:50:07.930Z,101407.56
2022-08-24T09:52:48.130Z,101406.28
2022-08-24T09:55:42.247Z,101404.13
2022-08-24T09:58:16.567Z,101403.94
2022-08-24T10:00:48.057Z,101398.09
2022-08-24T10:03:23.856Z,101400.50
2022-08-24T10:06:18.855Z,101390.94
2022-08-24T10:09:00.255Z,101400.69
2022-08-24T10:11:36.985Z,101389.16
2022-08-24T10:14:10.697Z,101381.34
2022-08-24T10:16:45.989Z,101386.53
2022-08-24T10:19:28.939Z,101377.22
2022-08-24T10:22:00.150Z,101379.88
2022-08-24T10:24:39.031Z,101372.56
2022-08-24T10:27:18.755Z,101378.28
2022-08-24T10:30:01.105Z,101372.94
2022-08-24T10:32:40.108Z,101370.41
2022-08-24T10:35:11.555Z,101371.59
2022-08-24T10:37:48.752Z,101372.78
2022-08-24T10:40:28.124Z,101366.31
2022-08-24T10:43:23.969Z,101361.53
2022-08-24T10:46:05.501Z,101357.63
2022-08-24T10:48:53.317Z,101353.47
2022-08-24T10:51:30.280Z,101354.69
2022-08-24T10:53:59.102Z,101354.44
2022-08-24T10:56:31.623Z,101361.03
2022-08-24T10:59:04.003Z,101351.44
2022-08-24T11:01:33.849Z,101354.84
2022-08-24T11:04:08.806Z,101346.34
2022-08-24T11:06:38.932Z,101347.22
2022-08-24T11:09:09.770Z,101347.78
2022-08-24T11:11:40.397Z,101344.38
2022-08-24T11:14:11.220Z,101344.09
2022-08-24T11:16:40.808Z,101341.53
2022-08-24T11:19:13.377Z,101343.25
2022-08-24T11:21:44.233Z,101340.69
2022-08-24T11:24:14.348Z,101344.09
2022-08-24T11:26:55.484Z,101343.81
2022-08-24T11:29:27.664Z,101329.38
2022-08-24T11:31:55.665Z,101337.34
2022-08-24T11:34:35.720Z,101330.84
2022-08-24T11:37:04.316Z,101324.66
2022-08-24T11:39:34.995Z,101332.31
2022-08-24T11:42:07.871Z,101320.44
2022-08-24T11:44:41.116Z,101315.91
2022-08-24T11:47:28.882Z,101309.44
2022-08-24T11:50:02.248Z,101312.59
2022-08-24T11:52:38.007Z,101319.97
2022-08-24T11:55:11.748Z,101320.25
2022-08-24T11:57:47.571Z,101314.63
2022-08-24T12:00:18.804Z,101313.56
2022-08-24T12:02:56.568Z,101312.44
2022-08-24T12:05:30.683Z,101307.34
2022-08-24T12:08:11.847Z,101312.78
2022-08-24T12:10:45.699Z,101311.41
2022-08-24T12:16:21.752Z,101306.03
2022-08-24T12:18:55.180Z,101309.47
2022-08-24T12:21:26.986Z,101306.66
2022-08-24T12:23:59.498Z,101305.53
2022-08-24T12:26:31.056Z,101300.97
2022-08-24T12:29:02.739Z,101297.31
2022-08-24T12:31:35.920Z,101295.31
2022-08-24T12:34:12.822Z,101299.88
2022-08-24T12:36:48.125Z,101301.88
2022-08-24T12:39:19.802Z,101300.19
2022-08-24T12:41:55.094Z,101299.09
2022-08-24T12:44:26.386Z,101290.81
2022-08-24T12:46:55.224Z,101293.09
2022-08-24T12:49:25.797Z,101299.63
2022-08-24T12:52:03.960Z,101299.94
2022-08-24T12:54:48.119Z,101305.88
2022-08-24T12:57:33.538Z,101300.47
2022-08-24T13:00:04.691Z,101302.19
2022-08-24T13:02:37.079Z,101295.38
2022-08-24T13:05:14.278Z,101298.22
2022-08-24T13:07:47.043Z,101295.91
2022-08-24T13:10:17.417Z,101289.38
2022-08-24T13:12:54.483Z,101293.34
2022-08-24T13:15:28.277Z,101296.19
2022-08-24T13:18:02.670Z,101288.84
2022-08-24T13:20:51.612Z,101293.66
2022-08-24T13:23:22.690Z,101287.97
2022-08-24T13:25:55.816Z,101297.91
2022-08-24T13:28:37.457Z,101284.84
2022-08-24T13:31:22.194Z,101280.56
2022-08-24T13:33:53.067Z,101283.72
2022-08-24T13:36:41.898Z,101275.78
2022-08-24T13:39:16.578Z,101288.84
2022-08-24T13:42:02.191Z,101286.00
2022-08-24T13:44:38.965Z,101277.69
2022-08-24T13:47:12.880Z,101278.00
2022-08-24T13:49:46.705Z,101272.31
2022-08-24T13:52:20.431Z,101281.97
2022-08-24T13:55:09.540Z,101271.72
2022-08-24T13:57:43.117Z,101271.72
2022-08-24T14:00:15.032Z,101266.91
2022-08-24T14:02:52.834Z,101264.03
2022-08-24T14:05:28.195Z,101262.06
2022-08-24T14:08:04.944Z,101261.72
2022-08-24T14:10:43.373Z,101261.44
2022-08-24T14:13:23.286Z,101253.22
2022-08-24T14:16:20.524Z,101252.34
2022-08-24T14:18:56.222Z,101240.16
2022-08-24T14:21:26.206Z,101240.16
2022-08-24T14:23:59.333Z,101236.19
2022-08-24T14:26:47.802Z,101244.09
2022-08-24T14:29:30.174Z,101243.84
2022-08-24T14:32:25.616Z,101235.03
2022-08-24T14:35:00.662Z,101240.19
2022-08-24T14:37:35.498Z,101239.63
2022-08-24T14:40:12.357Z,101243.03
2022-08-24T14:42:42.670Z,101240.78
2022-08-24T14:45:24.897Z,101235.66
2022-08-24T14:48:00.898Z,101231.66
2022-08-24T14:52:02.246Z,101224.00
2022-08-24T14:56:24.385Z,101234.28
2022-08-24T14:59:03.580Z,101218.63
2022-08-24T15:01:44.697Z,101218.63
2022-08-24T15:04:44.648Z,101218.03
2022-08-24T15:07:29.348Z,101216.34
2022-08-24T15:09:58.868Z,101213.22
2022-08-24T15:12:37.024Z,101210.09
2022-08-24T15:15:11.997Z,101216.34
2022-08-24T15:17:53.593Z,101203.00
2022-08-24T15:20:33.651Z,101208.69
2022-08-24T15:23:08.455Z,101206.69
2022-08-24T15:25:45.059Z,101207.53
2022-08-24T15:28:23.255Z,101197.59
2022-08-24T15:30:57.407Z,101193.84
2022-08-24T15:33:26.338Z,101185.91
2022-08-24T15:36:09.129Z,101187.63
2022-08-24T15:38:39.178Z,101188.16
2022-08-24T15:41:11.871Z,101189.31
2022-08-24T15:43:46.505Z,101187.28
2022-08-24T15:46:15.238Z,101183.25
2022-08-24T15:48:47.937Z,101184.97
2022-08-24T15:51:32.409Z,101182.94
2022-08-24T15:54:15.990Z,101178.97
2022-08-24T15:56:47.058Z,101172.72
2022-08-24T15:59:28.948Z,101181.47
2022-08-24T16:02:17.273Z,101174.94
2022-08-24T16:04:48.922Z,101178.03
2022-08-24T16:07:25.446Z,101174.34
2022-08-24T16:10:03.753Z,101174.00
2022-08-24T16:12:32.696Z,101173.41
2022-08-24T16:15:14.140Z,101174.78
2022-08-24T16:17:50.966Z,101171.38
2022-08-24T16:20:32.980Z,101178.44
2022-08-24T16:23:03.122Z,101173.28
2022-08-24T16:25:32.920Z,101178.66
2022-08-24T16:28:12.812Z,101168.72
2022-08-24T16:30:51.642Z,101171.53
2022-08-24T16:33:43.169Z,101170.31
2022-08-24T16:36:14.343Z,101166.91
2022-08-24T16:38:47.291Z,101162.63
2022-08-24T16:41:18.626Z,101168.00
2022-08-24T16:43:47.253Z,101163.69
2022-08-24T16:46:21.887Z,101163.41
2022-08-24T16:48:50.034Z,101160.81
2022-08-24T16:51:18.044Z,101161.63
2022-08-24T16:53:46.103Z,101155.06
2022-08-24T16:56:16.697Z,101161.88
2022-08-24T16:58:47.097Z,101164.91
2022-08-24T17:01:17.523Z,101164.06
2022-08-24T17:03:45.623Z,101165.97
2022-08-24T17:06:14.767Z,101170.50
2022-08-24T17:08:42.742Z,101175.84
2022-08-24T17:11:10.663Z,101167.88
2022-08-24T17:13:49.537Z,101164.75
2022-08-24T17:16:21.357Z,101174.09
2022-08-24T17:18:49.454Z,101168.66
2022-08-24T17:21:17.480Z,101171.75
2022-08-24T17:23:45.855Z,101171.16
2022-08-24T17:26:20.299Z,101170.31
2022-08-24T17:28:51.921Z,101178.75
2022-08-24T17:31:21.515Z,101177.91
2022-08-24T17:33:49.505Z,101173.31
2022-08-24T17:36:19.534Z,101180.09
2022-08-24T17:38:55.065Z,101184.31
2022-08-24T17:41:25.721Z,101180.56
2022-08-24T17:43:54.107Z,101185.34
2022-08-24T17:46:23.994Z,101193.25
2022-08-24T17:48:52.361Z,101190.94
2022-08-24T17:51:20.641Z,101192.88
2022-08-24T17:53:48.646Z,101190.56
2022-08-24T17:56:17.472Z,101200.47
2022-08-24T17:59:03.747Z,101204.66
2022-08-24T18:01:33.415Z,101200.06
2022-08-24T18:04:01.327Z,101198.88
2022-08-24T18:06:29.651Z,101201.41
2022-08-24T18:09:02.586Z,101207.84
2022-08-24T18:11:30.963Z,101206.66
2022-08-24T18:13:59.209Z,101201.53
2022-08-24T18:16:28.399Z,101214.19
2022-08-24T18:18:57.953Z,101208.81
2022-08-24T18:21:25.806Z,101205.03
2022-08-24T18:23:54.091Z,101207.56
2022-08-24T18:26:28.276Z,101209.78
2022-08-24T18:28:58.269Z,101204.34
2022-08-24T18:31:29.326Z,101212.72
2022-08-24T18:33:58.655Z,101212.41
2022-08-24T18:36:26.589Z,101218.25
2022-08-24T18:38:54.577Z,101218.41
2022-08-24T18:41:24.971Z,101221.16
2022-08-24T18:43:54.257Z,101214.84
2022-08-24T18:46:29.129Z,101222.97
2022-08-24T18:48:58.988Z,101224.00
2022-08-24T18:51:34.145Z,101230.09
2022-08-24T18:54:06.269Z,101231.13
2022-08-24T18:56:34.229Z,101231.81
2022-08-24T18:59:02.461Z,101234.53
2022-08-24T19:01:30.923Z,101239.47
2022-08-24T19:04:05.382Z,101242.81
2022-08-24T19:06:38.154Z,101234.66
2022-08-24T19:09:05.981Z,101231.16
2022-08-24T19:11:33.915Z,101235.25
2022-08-24T19:14:02.124Z,101240.81
2022-08-24T19:16:30.451Z,101234.72
2022-08-24T19:18:58.447Z,101234.56
2022-08-24T19:21:31.209Z,101233.38
2022-08-24T19:23:59.431Z,101234.88
2022-08-24T19:26:27.484Z,101245.22
2022-08-24T19:28:57.124Z,101241.69
2022-08-24T19:31:27.095Z,101246.34
2022-08-24T19:33:59.886Z,101246.50
2022-08-24T19:36:32.942Z,101239.91
2022-08-24T19:39:01.112Z,101242.81
2022-08-24T19:41:36.543Z,101242.72
2022-08-24T19:44:27.296Z,101248.25
2022-08-24T19:46:56.880Z,101241.28
2022-08-24T19:49:25.304Z,101247.16
2022-08-24T19:51:55.676Z,101241.16
2022-08-24T19:54:24.567Z,101237.59
2022-08-24T19:56:54.329Z,101241.78
2022-08-24T19:59:27.432Z,101240.31
2022-08-24T20:01:55.468Z,101240.44
2022-08-24T20:04:24.014Z,101231.59
2022-08-24T20:06:52.112Z,101228.44
2022-08-24T20:09:23.599Z,101231.72
2022-08-24T20:11:51.688Z,101236.63
2022-08-24T20:14:19.616Z,101237.97
2022-08-24T20:16:47.762Z,101228.31
2022-08-24T20:19:15.721Z,101231.59
2022-08-24T20:21:43.639Z,101229.25
2022-08-24T20:24:11.769Z,101234.78
2022-08-24T20:26:43.478Z,101229.38
2022-08-24T20:29:12.580Z,101233.44
2022-08-24T20:31:41.503Z,101228.28
2022-08-24T20:34:09.617Z,101237.22
2022-08-24T20:36:39.734Z,101230.97
2022-08-24T20:39:10.741Z,101225.78
2022-08-24T20:41:40.574Z,101223.31
2022-08-24T20:44:10.315Z,101230.66
2022-08-24T20:46:39.166Z,101230.78
2022-08-24T20:49:08.244Z,101227.34
2022-08-24T20:51:43.371Z,101228.94
2022-08-24T20:54:12.066Z,101232.22
2022-08-24T20:56:40.308Z,101228.78
2022-08-24T20:59:11.801Z,101226.25
2022-08-24T21:01:42.856Z,101230.00
2022-08-24T21:04:11.502Z,101231.59
2022-08-24T21:06:41.356Z,101233.53
2022-08-24T21:09:12.750Z,101231.19
2022-08-24T21:11:43.215Z,101231.69
2022-08-24T21:14:12.870Z,101228.88
2022-08-24T21:16:44.368Z,101234.13
2022-08-24T21:19:17.630Z,101229.81
2022-08-24T21:21:47.259Z,101228.34
2022-08-24T21:24:16.457Z,101236.16
2022-08-24T21:26:44.531Z,101235.53
2022-08-24T21:29:14.125Z,101235.53
2022-08-24T21:31:42.516Z,101235.16
2022-08-24T21:34:28.159Z,101236.25
2022-08-24T21:36:56.151Z,101238.44
2022-08-24T21:39:24.543Z,101247.97
2022-08-24T21:41:53.463Z,101238.03
2022-08-24T21:44:22.732Z,101250.13
2022-08-24T21:46:51.851Z,101239.41
2022-08-24T21:49:20.134Z,101246.56
2022-08-24T21:51:48.197Z,101247.06
2022-08-24T21:54:16.045Z,101246.66
2022-08-24T21:56:44.279Z,101249.94
2022-08-24T21:59:12.240Z,101255.19
2022-08-24T22:01:41.940Z,101257.16
2022-08-24T22:04:11.233Z,101257.25
2022-08-24T22:06:39.549Z,101260.28
2022-08-24T22:09:08.717Z,101263.53
2022-08-24T22:11:37.139Z,101261.22
2022-08-24T22:14:05.434Z,101256.25
2022-08-24T22:16:33.736Z,101256.97
2022-08-24T22:19:07.021Z,101257.44
2022-08-24T22:21:36.450Z,101260.69
2022-08-24T22:24:05.158Z,101252.75
2022-08-24T22:26:33.401Z,101250.41
2022-08-24T22:29:02.099Z,101261.00
2022-08-24T22:31:32.223Z,101259.31
2022-08-24T22:34:02.837Z,101256.97
2022-08-24T22:36:32.247Z,101253.75
2022-08-24T22:39:01.194Z,101253.59
2022-08-24T22:41:30.456Z,101248.44
2022-08-24T22:44:17.976Z,101252.19
2022-08-24T22:46:46.366Z,101257.16
2022-08-24T22:49:14.581Z,101257.41
2022-08-24T22:51:43.834Z,101256.56
2022-08-24T22:54:12.428Z,101251.63
2022-08-24T22:56:43.224Z,101251.00
2022-08-24T22:59:16.566Z,101256.00
2022-08-24T23:01:47.255Z,101251.03
2022-08-24T23:04:17.394Z,101255.16
2022-08-24T23:06:47.333Z,101251.75
2022-08-24T23:09:15.233Z,101246.81
2022-08-24T23:11:43.462Z,101252.03
2022-08-24T23:14:12.371Z,101244.69
2022-08-24T23:16:44.598Z,101253.34
2022-08-24T23:19:30.551Z,101252.06
2022-08-24T23:21:59.924Z,101252.31
2022-08-24T23:24:28.354Z,101253.84
2022-08-24T23:26:56.407Z,101251.03
2022-08-24T23:29:24.557Z,101253.22
2022-08-24T23:31:53.617Z,101256.28
2022-08-24T23:34:23.007Z,101254.56
2022-08-24T23:36:51.794Z,101262.34
2022-08-24T23:39:21.416Z,101262.34
2022-08-24T23:41:50.855Z,101259.75
2022-08-24T23:44:20.844Z,101273.13
2022-08-24T23:46:48.810Z,101266.94
2022-08-24T23:49:19.791Z,101273.13
2022-08-24T23:51:48.566Z,101269.72
2022-08-24T23:54:17.751Z,101269.72
2022-08-24T23:56:48.464Z,101268.66
2022-08-24T23:59:19.689Z,101276.19
